createdAt,value
2018-12-31T00:02:25.653Z,6.27
2018-12-31T00:04:55.286Z,7.23
2018-12-31T00:07:24.978Z,8.00
2018-12-31T00:09:54.722Z,6.27
2018-12-31T00:12:24.432Z,6.43
2018-12-31T00:14:54.112Z,4.27
2018-12-31T00:17:23.745Z,7.63
2018-12-31T00:19:53.722Z,5.73
2018-12-31T00:22:23.402Z,5.23
2018-12-31T00:24:53.074Z,6.03
2018-12-31T00:27:22.722Z,4.90
2018-12-31T00:29:52.397Z,4.07
2018-12-31T00:32:22.047Z,4.17
2018-12-31T00:35:10.685Z,2.63
2018-12-31T00:37:51.381Z,4.83
2018-12-31T00:40:21.422Z,7.13
2018-12-31T00:42:51.051Z,1.50
2018-12-31T00:45:20.696Z,3.17
2018-12-31T00:47:50.365Z,2.53
2018-12-31T00:50:20.016Z,2.97
2018-12-31T00:53:09.509Z,1.80
2018-12-31T00:55:39.167Z,1.90
2018-12-31T00:58:08.881Z,2.10
2018-12-31T01:00:38.583Z,3.10
2018-12-31T01:03:08.231Z,1.70
2018-12-31T01:05:37.879Z,3.67
2018-12-31T01:08:07.543Z,3.17
2018-12-31T01:10:37.289Z,3.83
2018-12-31T01:13:06.921Z,2.43
2018-12-31T01:15:36.613Z,2.67
2018-12-31T01:18:06.227Z,2.43
2018-12-31T01:20:36.059Z,2.80
2018-12-31T01:23:05.738Z,2.87
2018-12-31T01:25:35.368Z,2.97
2018-12-31T01:28:05.067Z,3.03
2018-12-31T01:36:25.153Z,4.27
2018-12-31T01:38:54.815Z,4.63
2018-12-31T01:41:24.480Z,3.20
2018-12-31T01:43:54.166Z,1.90
2018-12-31T01:46:23.790Z,2.03
2018-12-31T01:48:53.411Z,5.00
2018-12-31T01:51:23.179Z,3.37
2018-12-31T01:53:52.798Z,4.23
2018-12-31T01:56:22.450Z,3.77
2018-12-31T01:58:52.266Z,3.80
2018-12-31T02:01:40.867Z,2.30
2018-12-31T02:04:10.530Z,4.23
2018-12-31T02:06:40.163Z,4.70
2018-12-31T02:09:09.789Z,3.00
2018-12-31T02:11:39.617Z,4.40
2018-12-31T02:14:09.255Z,3.60
2018-12-31T02:16:38.884Z,4.30
2018-12-31T02:19:08.564Z,3.23
2018-12-31T02:21:38.625Z,3.70
2018-12-31T02:24:08.323Z,5.60
2018-12-31T02:26:38.413Z,4.50
2018-12-31T02:29:08.088Z,4.13
2018-12-31T02:31:37.854Z,5.40
2018-12-31T02:34:07.546Z,7.53
2018-12-31T02:36:39.873Z,4.47
2018-12-31T02:39:09.526Z,3.87
2018-12-31T02:41:39.191Z,3.73
2018-12-31T02:44:08.910Z,3.63
2018-12-31T02:46:38.518Z,5.17
2018-12-31T02:51:57.057Z,5.27
2018-12-31T02:54:26.732Z,3.27
2018-12-31T02:56:56.369Z,7.00
2018-12-31T02:59:37.849Z,6.53
2018-12-31T03:02:07.570Z,6.77
2018-12-31T03:04:37.195Z,6.30
2018-12-31T03:07:06.876Z,4.87
2018-12-31T03:09:36.509Z,5.47
2018-12-31T03:12:06.252Z,5.63
2018-12-31T03:14:35.933Z,3.93
2018-12-31T03:17:05.565Z,5.30
2018-12-31T03:19:35.187Z,3.87
2018-12-31T03:22:05.048Z,6.13
2018-12-31T03:24:34.740Z,6.07
2018-12-31T03:27:25.624Z,6.40
2018-12-31T03:29:55.258Z,6.10
2018-12-31T03:32:24.903Z,8.13
2018-12-31T03:34:54.617Z,4.07
2018-12-31T03:37:24.455Z,5.80
2018-12-31T03:39:54.107Z,4.23
2018-12-31T03:42:23.752Z,6.10
2018-12-31T03:44:53.372Z,6.70
2018-12-31T03:47:23.202Z,5.13
2018-12-31T03:50:11.750Z,9.27
2018-12-31T03:52:41.387Z,5.87
2018-12-31T03:55:11.056Z,11.43
2018-12-31T03:57:40.702Z,4.80
2018-12-31T04:00:10.471Z,5.10
2018-12-31T04:02:40.135Z,4.80
2018-12-31T04:05:09.804Z,5.37
2018-12-31T04:07:39.654Z,7.53
2018-12-31T04:10:09.302Z,6.20
2018-12-31T04:12:39.056Z,7.60
2018-12-31T04:15:08.674Z,5.70
2018-12-31T04:20:26.858Z,4.40
2018-12-31T04:22:56.831Z,5.93
2018-12-31T04:25:26.547Z,5.30
2018-12-31T04:27:56.229Z,5.30
2018-12-31T04:30:25.847Z,6.23
2018-12-31T04:32:55.481Z,10.57
2018-12-31T04:35:25.183Z,5.67
2018-12-31T04:37:55.104Z,8.43
2018-12-31T04:40:24.717Z,8.63
2018-12-31T04:43:13.223Z,6.30
2018-12-31T04:46:01.739Z,5.17
2018-12-31T04:48:31.472Z,5.97
2018-12-31T04:51:01.135Z,6.00
2018-12-31T04:53:30.796Z,8.83
2018-12-31T04:56:19.290Z,6.70
2018-12-31T04:58:48.923Z,7.70
2018-12-31T05:01:18.692Z,7.13
2018-12-31T05:06:23.697Z,7.83
2018-12-31T05:08:53.345Z,7.50
2018-12-31T05:11:22.963Z,4.90
2018-12-31T05:13:52.940Z,7.00
2018-12-31T05:18:57.585Z,7.90
2018-12-31T05:21:27.218Z,7.90
2018-12-31T05:23:57.445Z,6.97
2018-12-31T05:26:27.072Z,5.40
2018-12-31T05:28:56.765Z,8.03
2018-12-31T05:31:26.394Z,5.87
2018-12-31T05:33:56.050Z,6.47
2018-12-31T05:36:25.717Z,7.33
2018-12-31T05:38:55.537Z,9.87
2018-12-31T05:41:25.175Z,9.13
2018-12-31T05:43:54.837Z,8.73
2018-12-31T05:46:24.485Z,10.03
2018-12-31T05:48:54.129Z,9.43
2018-12-31T05:51:23.891Z,7.13
2018-12-31T05:53:53.518Z,11.43
2018-12-31T05:56:23.154Z,7.37
2018-12-31T05:58:52.825Z,11.57
2018-12-31T06:01:41.395Z,9.87
2018-12-31T06:04:11.274Z,24.87
2018-12-31T06:06:40.999Z,18.00
2018-12-31T06:09:10.731Z,39.57
2018-12-31T06:11:40.416Z,39.53
2018-12-31T06:14:10.345Z,22.30
2018-12-31T06:16:39.972Z,65.10
2018-12-31T06:19:09.648Z,60.80
2018-12-31T06:21:39.292Z,64.77
2018-12-31T06:24:11.674Z,55.17
2018-12-31T06:26:41.343Z,79.17
2018-12-31T06:29:10.983Z,95.60
2018-12-31T06:31:40.646Z,40.00
2018-12-31T06:34:10.345Z,55.87
2018-12-31T06:36:39.974Z,45.07
2018-12-31T06:39:10.029Z,47.97
2018-12-31T06:41:39.744Z,56.43
2018-12-31T06:44:09.386Z,44.37
2018-12-31T06:46:39.033Z,55.63
2018-12-31T06:49:08.730Z,26.47
2018-12-31T06:51:38.420Z,59.70
2018-12-31T06:54:08.091Z,30.30
2018-12-31T06:56:37.784Z,37.10
2018-12-31T06:59:07.428Z,38.27
2018-12-31T07:01:37.081Z,70.60
2018-12-31T07:04:06.784Z,74.07
2018-12-31T07:06:36.584Z,54.07
2018-12-31T07:09:07.715Z,36.67
2018-12-31T07:11:37.393Z,47.97
2018-12-31T07:14:07.023Z,41.30
2018-12-31T07:16:36.659Z,40.60
2018-12-31T07:19:06.357Z,74.03
2018-12-31T07:21:35.991Z,49.83
2018-12-31T07:24:05.644Z,59.43
2018-12-31T07:26:35.520Z,42.30
2018-12-31T07:29:05.180Z,32.47
2018-12-31T07:31:34.820Z,63.00
2018-12-31T07:34:04.484Z,36.23
2018-12-31T07:36:40.928Z,50.10
2018-12-31T07:39:10.609Z,85.30
2018-12-31T07:41:40.334Z,55.10
2018-12-31T07:44:09.973Z,52.60
2018-12-31T07:46:39.675Z,26.40
2018-12-31T07:49:09.304Z,24.07
2018-12-31T07:52:18.100Z,47.77
2018-12-31T07:54:47.737Z,40.53
2018-12-31T07:57:17.379Z,38.60
2018-12-31T07:59:47.042Z,27.57
2018-12-31T08:02:16.683Z,36.30
2018-12-31T08:04:46.377Z,25.57
2018-12-31T08:07:27.530Z,26.90
2018-12-31T08:09:57.220Z,23.77
2018-12-31T08:15:22.095Z,25.07
2018-12-31T08:17:51.726Z,21.47
2018-12-31T08:20:21.367Z,24.00
2018-12-31T08:22:51.026Z,23.17
2018-12-31T08:25:20.670Z,20.93
2018-12-31T08:27:50.482Z,16.37
2018-12-31T08:30:20.177Z,22.07
2018-12-31T08:32:49.809Z,18.83
2018-12-31T08:35:19.469Z,17.37
2018-12-31T08:37:49.130Z,14.80
2018-12-31T08:40:18.799Z,10.70
2018-12-31T08:42:48.657Z,13.80
2018-12-31T08:45:18.344Z,10.03
2018-12-31T08:47:47.965Z,10.27
2018-12-31T08:50:17.602Z,10.90
2018-12-31T08:52:47.333Z,11.27
2018-12-31T08:55:17.010Z,9.90
2018-12-31T08:57:46.742Z,8.83
2018-12-31T09:00:16.524Z,8.97
2018-12-31T09:02:46.171Z,8.27
2018-12-31T09:05:15.790Z,7.43
2018-12-31T09:07:45.459Z,7.00
2018-12-31T09:10:33.978Z,7.10
2018-12-31T09:13:03.826Z,6.50
2018-12-31T09:15:33.501Z,5.33
2018-12-31T09:18:03.253Z,7.30
2018-12-31T09:20:32.931Z,5.83
2018-12-31T09:23:02.561Z,4.20
2018-12-31T09:25:32.183Z,4.67
2018-12-31T09:28:02.241Z,4.57
2018-12-31T09:30:32.012Z,5.53
2018-12-31T09:33:01.682Z,5.63
2018-12-31T09:35:31.424Z,3.10
2018-12-31T09:38:01.122Z,6.43
2018-12-31T09:40:30.772Z,5.67
2018-12-31T09:43:00.595Z,3.83
2018-12-31T09:45:30.252Z,5.20
2018-12-31T09:47:59.915Z,5.70
2018-12-31T09:50:29.576Z,3.37
2018-12-31T09:52:59.214Z,3.30
2018-12-31T09:55:47.742Z,3.20
2018-12-31T09:58:17.426Z,3.73
2018-12-31T10:00:47.075Z,3.27
2018-12-31T10:03:16.836Z,3.00
2018-12-31T10:05:46.493Z,2.57
2018-12-31T10:08:16.131Z,2.70
2018-12-31T10:10:47.565Z,2.50
2018-12-31T10:13:17.776Z,3.80
2018-12-31T10:15:47.450Z,4.00
2018-12-31T10:18:17.204Z,3.17
2018-12-31T10:20:46.830Z,5.83
2018-12-31T10:26:05.135Z,6.23
2018-12-31T10:28:35.211Z,4.83
2018-12-31T10:31:04.890Z,4.07
2018-12-31T10:36:10.252Z,5.93
2018-12-31T10:38:39.980Z,6.10
2018-12-31T10:41:09.614Z,5.10
2018-12-31T10:43:39.285Z,6.63
2018-12-31T10:46:09.057Z,8.63
2018-12-31T10:48:38.716Z,5.93
2018-12-31T10:51:08.375Z,6.37
2018-12-31T10:53:38.097Z,8.37
2018-12-31T10:56:07.772Z,5.00
2018-12-31T10:58:56.412Z,4.63
2018-12-31T11:01:37.165Z,4.90
2018-12-31T11:04:06.847Z,4.07
2018-12-31T11:06:36.621Z,5.50
2018-12-31T11:09:07.564Z,6.93
2018-12-31T11:11:37.355Z,6.00
2018-12-31T11:14:07.002Z,6.23
2018-12-31T11:16:36.645Z,5.50
2018-12-31T11:19:06.789Z,3.47
2018-12-31T11:21:36.455Z,6.50
2018-12-31T11:24:25.275Z,2.80
2018-12-31T11:26:54.954Z,7.20
2018-12-31T11:29:25.026Z,5.93
2018-12-31T11:31:54.727Z,5.43
2018-12-31T11:34:24.339Z,4.73
2018-12-31T11:36:54.775Z,4.07
2018-12-31T11:39:24.499Z,6.53
2018-12-31T11:41:54.136Z,6.07
2018-12-31T11:44:23.775Z,2.73
2018-12-31T11:46:53.516Z,2.93
2018-12-31T11:49:23.171Z,4.17
2018-12-31T11:51:52.849Z,3.00
2018-12-31T11:54:22.576Z,3.60
2018-12-31T11:56:52.171Z,4.33
2018-12-31T11:59:22.079Z,3.77
2018-12-31T12:01:51.814Z,6.20
2018-12-31T12:04:21.501Z,4.07
2018-12-31T12:06:51.163Z,6.77
2018-12-31T12:09:21.030Z,2.83
2018-12-31T12:12:09.871Z,5.37
2018-12-31T12:14:41.429Z,4.23
2018-12-31T12:17:11.076Z,3.63
2018-12-31T12:19:40.716Z,4.57
2018-12-31T12:22:10.450Z,3.40
2018-12-31T12:24:40.101Z,2.83
2018-12-31T12:27:09.780Z,4.83
2018-12-31T12:29:39.918Z,2.77
2018-12-31T12:32:09.545Z,4.87
2018-12-31T12:34:39.175Z,2.33
2018-12-31T12:37:08.895Z,2.53
2018-12-31T12:39:38.549Z,2.90
2018-12-31T12:42:08.191Z,1.40
2018-12-31T12:47:13.370Z,3.10
2018-12-31T12:50:01.902Z,2.70
2018-12-31T12:52:31.558Z,3.50
2018-12-31T12:55:01.183Z,2.07
2018-12-31T12:57:32.583Z,3.00
2018-12-31T13:00:02.252Z,2.43
2018-12-31T13:02:31.877Z,1.40
2018-12-31T13:05:03.739Z,2.67
2018-12-31T13:07:32.963Z,4.83
2018-12-31T13:10:02.611Z,3.13
2018-12-31T13:12:32.502Z,2.50
2018-12-31T13:15:02.114Z,1.20
2018-12-31T13:17:50.586Z,3.20
2018-12-31T13:20:20.218Z,2.57
2018-12-31T13:22:49.941Z,2.43
2018-12-31T13:27:55.300Z,1.10
2018-12-31T13:33:00.034Z,2.67
2018-12-31T13:35:29.808Z,1.33
2018-12-31T13:37:59.448Z,1.83
2018-12-31T13:40:29.109Z,2.97
2018-12-31T13:42:58.817Z,2.40
2018-12-31T13:45:28.459Z,3.50
2018-12-31T13:47:58.109Z,4.07
2018-12-31T13:50:27.868Z,5.37
2018-12-31T13:52:57.586Z,3.67
2018-12-31T13:55:46.342Z,2.33
2018-12-31T13:58:16.015Z,3.90
2018-12-31T14:00:45.681Z,2.60
2018-12-31T14:05:50.908Z,2.23
2018-12-31T14:08:20.571Z,4.73
2018-12-31T14:13:30.907Z,2.57
2018-12-31T14:16:00.537Z,3.03
2018-12-31T14:18:30.164Z,2.63
2018-12-31T14:21:00.015Z,2.63
2018-12-31T14:23:29.707Z,5.23
2018-12-31T14:26:18.204Z,2.57
2018-12-31T14:28:59.053Z,2.73
2018-12-31T14:31:28.951Z,3.47
2018-12-31T14:34:00.883Z,2.57
2018-12-31T14:36:30.583Z,3.07
2018-12-31T14:39:02.007Z,1.17
2018-12-31T14:41:31.674Z,2.10
2018-12-31T14:44:01.417Z,2.03
2018-12-31T14:46:31.185Z,1.27
2018-12-31T14:49:00.691Z,3.27
2018-12-31T14:51:30.418Z,5.77
2018-12-31T14:54:18.900Z,2.83
2018-12-31T14:56:48.568Z,2.80
2018-12-31T14:59:19.923Z,3.43
2018-12-31T15:01:49.649Z,4.47
2018-12-31T15:04:19.295Z,2.70
2018-12-31T15:06:48.950Z,2.27
2018-12-31T15:09:18.692Z,2.10
2018-12-31T15:11:48.381Z,2.77
2018-12-31T15:14:18.083Z,3.77
2018-12-31T15:17:06.592Z,3.63
2018-12-31T15:19:37.967Z,1.50
2018-12-31T15:22:07.588Z,1.83
2018-12-31T15:27:13.479Z,1.97
2018-12-31T15:29:43.169Z,3.13
2018-12-31T15:32:12.931Z,1.70
2018-12-31T15:34:42.660Z,3.03
2018-12-31T15:37:32.905Z,2.17
2018-12-31T15:40:02.538Z,1.33
2018-12-31T15:42:32.221Z,2.50
2018-12-31T15:45:01.953Z,2.40
2018-12-31T15:50:20.203Z,1.37
2018-12-31T15:52:49.841Z,4.00
2018-12-31T15:55:19.613Z,2.63
2018-12-31T15:57:49.314Z,3.27
2018-12-31T16:00:20.676Z,3.33
2018-12-31T16:02:50.310Z,4.27
2018-12-31T16:05:20.056Z,2.10
2018-12-31T16:07:49.681Z,2.40
2018-12-31T16:10:19.315Z,3.17
2018-12-31T16:12:49.007Z,4.07
2018-12-31T16:15:18.718Z,1.80
2018-12-31T16:17:48.360Z,3.00
2018-12-31T16:20:18.007Z,4.63
2018-12-31T16:22:47.645Z,4.90
2018-12-31T16:25:17.315Z,2.33
2018-12-31T16:27:46.939Z,5.03
2018-12-31T16:30:16.581Z,3.53
2018-12-31T16:32:46.296Z,3.73
2018-12-31T16:35:35.306Z,3.00
2018-12-31T16:38:04.922Z,2.37
2018-12-31T16:40:34.561Z,3.90
2018-12-31T16:45:59.423Z,2.37
2018-12-31T16:48:29.076Z,1.60
2018-12-31T16:51:17.682Z,2.67
2018-12-31T16:53:47.309Z,6.90
2018-12-31T16:56:16.940Z,3.90
2018-12-31T16:58:46.677Z,4.73
2018-12-31T17:01:16.320Z,2.67
2018-12-31T17:03:46.148Z,4.13
2018-12-31T17:06:34.689Z,2.13
2018-12-31T17:12:13.213Z,2.90
2018-12-31T17:14:42.831Z,4.07
2018-12-31T17:17:14.349Z,3.27
2018-12-31T17:20:02.960Z,3.50
2018-12-31T17:22:32.647Z,0.93
2018-12-31T17:25:02.306Z,2.97
2018-12-31T17:27:31.921Z,6.03
2018-12-31T17:30:01.592Z,3.83
2018-12-31T17:32:31.217Z,4.07
2018-12-31T17:35:01.026Z,4.30
2018-12-31T17:37:30.999Z,2.80
2018-12-31T17:40:00.612Z,4.30
2018-12-31T17:42:30.260Z,3.47
2018-12-31T17:44:59.910Z,4.93
2018-12-31T17:47:29.556Z,1.00
2018-12-31T17:50:00.909Z,3.40
2018-12-31T17:52:30.581Z,2.53
2018-12-31T17:55:00.213Z,4.30
2018-12-31T17:57:29.869Z,3.50
2018-12-31T17:59:59.550Z,4.57
2018-12-31T18:02:29.365Z,4.67
2018-12-31T18:04:59.093Z,4.47
2018-12-31T18:07:28.751Z,3.80
2018-12-31T18:09:58.384Z,3.53
2018-12-31T18:12:28.089Z,3.97
2018-12-31T18:14:57.770Z,3.90
2018-12-31T18:17:27.387Z,4.27
2018-12-31T18:19:58.845Z,2.97
2018-12-31T18:22:28.674Z,2.90
2018-12-31T18:24:58.308Z,3.17
2018-12-31T18:27:27.951Z,2.67
2018-12-31T18:29:57.676Z,4.97
2018-12-31T18:32:27.334Z,2.77
2018-12-31T18:34:57.145Z,6.00
2018-12-31T18:37:28.600Z,4.50
2018-12-31T18:39:58.359Z,3.97
2018-12-31T18:42:27.947Z,2.57
2018-12-31T18:44:57.675Z,23.23
2018-12-31T18:50:41.862Z,4.03
2018-12-31T18:53:11.482Z,5.07
2018-12-31T18:55:41.086Z,2.20
2018-12-31T18:58:10.762Z,4.67
2018-12-31T19:00:40.382Z,5.37
2018-12-31T19:03:10.031Z,3.20
2018-12-31T19:05:39.983Z,6.13
2018-12-31T19:08:09.617Z,5.43
2018-12-31T19:10:39.250Z,4.40
2018-12-31T19:13:08.911Z,23.47
2018-12-31T19:15:38.544Z,5.53
2018-12-31T19:18:08.156Z,7.43
2018-12-31T19:20:38.144Z,6.73
2018-12-31T19:23:26.565Z,5.57
2018-12-31T19:25:56.235Z,5.67
2018-12-31T19:28:27.617Z,4.93
2018-12-31T19:30:57.264Z,7.03
2018-12-31T19:33:26.906Z,7.67
2018-12-31T19:35:56.545Z,5.10
2018-12-31T19:38:26.372Z,6.53
2018-12-31T19:40:56.068Z,9.37
2018-12-31T19:43:25.686Z,7.97
2018-12-31T19:45:55.319Z,3.17
2018-12-31T19:48:24.963Z,8.10
2018-12-31T19:50:54.601Z,9.70
2018-12-31T19:53:24.358Z,10.00
2018-12-31T19:55:54.124Z,10.77
2018-12-31T19:58:23.853Z,11.87
2018-12-31T20:00:53.483Z,10.33
2018-12-31T20:03:23.192Z,10.23
2018-12-31T20:05:53.278Z,14.47
2018-12-31T20:08:22.934Z,14.53
2018-12-31T20:13:27.668Z,13.27
2018-12-31T20:15:59.064Z,9.57
2018-12-31T20:18:28.719Z,10.87
2018-12-31T20:20:58.366Z,13.20
2018-12-31T20:23:28.227Z,5.00
2018-12-31T20:25:58.008Z,10.77
2018-12-31T20:28:29.312Z,12.80
2018-12-31T20:30:58.984Z,14.27
2018-12-31T20:33:28.654Z,12.20
2018-12-31T20:35:58.309Z,12.10
2018-12-31T20:38:28.000Z,15.53
2018-12-31T20:41:01.903Z,6.17
2018-12-31T20:43:31.527Z,17.50
2018-12-31T20:46:01.212Z,20.40
2018-12-31T20:48:30.850Z,12.43
2018-12-31T20:51:00.513Z,17.03
2018-12-31T20:53:32.203Z,11.83
2018-12-31T20:56:02.082Z,12.43
2018-12-31T20:58:31.709Z,18.33
2018-12-31T21:01:01.442Z,13.40
2018-12-31T21:03:31.090Z,16.70
2018-12-31T21:08:51.260Z,14.17
2018-12-31T21:11:20.890Z,24.10
2018-12-31T21:13:50.562Z,20.70
2018-12-31T21:16:20.265Z,27.87
2018-12-31T21:19:08.959Z,24.70
2018-12-31T21:21:38.644Z,20.13
2018-12-31T21:24:08.518Z,13.47
2018-12-31T21:26:38.448Z,19.40
2018-12-31T21:29:27.482Z,12.97
2018-12-31T21:31:58.445Z,13.43
2018-12-31T21:34:28.062Z,15.60
2018-12-31T21:36:57.755Z,16.93
2018-12-31T21:39:27.433Z,19.93
2018-12-31T21:41:57.304Z,16.93
2018-12-31T21:44:27.011Z,21.40
2018-12-31T21:46:56.665Z,19.63
2018-12-31T21:49:26.304Z,14.70
2018-12-31T21:52:14.788Z,13.80
2018-12-31T21:54:45.000Z,20.00
2018-12-31T21:57:14.825Z,15.40
2018-12-31T21:59:44.544Z,13.93
2018-12-31T22:02:14.174Z,9.83
2018-12-31T22:04:43.807Z,14.80
2018-12-31T22:07:15.203Z,16.23
2018-12-31T22:09:47.049Z,10.10
2018-12-31T22:15:08.225Z,12.50
2018-12-31T22:17:37.861Z,14.90
2018-12-31T22:20:09.146Z,16.30
2018-12-31T22:22:38.832Z,13.13
2018-12-31T22:27:57.547Z,10.07
2018-12-31T22:30:27.176Z,6.57
2018-12-31T22:32:56.786Z,8.67
2018-12-31T22:35:26.518Z,9.30
2018-12-31T22:37:56.148Z,12.93
2018-12-31T22:40:25.814Z,11.53
2018-12-31T22:42:55.876Z,6.63
2018-12-31T22:45:25.541Z,9.67
2018-12-31T22:47:55.154Z,5.27
2018-12-31T22:50:24.859Z,10.00
2018-12-31T22:52:54.486Z,8.57
2018-12-31T22:55:24.206Z,8.37
2018-12-31T22:57:53.885Z,12.33
2018-12-31T23:00:30.101Z,12.63
2018-12-31T23:02:59.786Z,31.67
2018-12-31T23:05:30.971Z,33.93
2018-12-31T23:08:00.615Z,49.07
2018-12-31T23:13:05.572Z,72.67
2018-12-31T23:15:37.210Z,74.33
2018-12-31T23:18:06.965Z,61.70
2018-12-31T23:20:36.621Z,66.20
2018-12-31T23:23:06.304Z,41.53
2018-12-31T23:25:36.039Z,45.60
2018-12-31T23:28:05.954Z,42.20
2018-12-31T23:30:35.630Z,30.67
2018-12-31T23:33:05.275Z,23.47
2018-12-31T23:35:34.914Z,28.90
2018-12-31T23:38:04.629Z,34.73
2018-12-31T23:40:36.027Z,33.33
2018-12-31T23:43:06.672Z,41.57
2018-12-31T23:45:37.532Z,42.20
2018-12-31T23:48:07.160Z,42.10
2018-12-31T23:50:36.787Z,47.53
2018-12-31T23:53:06.480Z,49.50
2018-12-31T23:55:55.086Z,40.80
2018-12-31T23:58:24.794Z,38.07
